sensor_id;sensor_type;location;lat;lon;timestamp;P1;durP1;ratioP1;P2;durP2;ratioP2
52894;SDS011;38759;53.396;6.722;2024-01-30T00:01:16;24.77;;;20.30;;
52894;SDS011;38759;53.396;6.722;2024-01-30T00:03:42;24.08;;;19.98;;
52894;SDS011;38759;53.396;6.722;2024-01-30T00:06:08;24.23;;;19.15;;
52894;SDS011;38759;53.396;6.722;2024-01-30T00:08:34;23.95;;;19.80;;
52894;SDS011;38759;53.396;6.722;2024-01-30T00:10:59;26.98;;;20.20;;
52894;SDS011;38759;53.396;6.722;2024-01-30T00:13:26;25.00;;;20.25;;
52894;SDS011;38759;53.396;6.722;2024-01-30T00:15:52;24.30;;;20.15;;
52894;SDS011;38759;53.396;6.722;2024-01-30T00:18:17;26.27;;;20.35;;
52894;SDS011;38759;53.396;6.722;2024-01-30T00:20:43;27.92;;;21.02;;
52894;SDS011;38759;53.396;6.722;2024-01-30T00:23:09;28.05;;;21.13;;
52894;SDS011;38759;53.396;6.722;2024-01-30T00:25:35;26.42;;;20.45;;
52894;SDS011;38759;53.396;6.722;2024-01-30T00:28:01;24.42;;;20.35;;
52894;SDS011;38759;53.396;6.722;2024-01-30T00:30:26;28.02;;;20.42;;
52894;SDS011;38759;53.396;6.722;2024-01-30T00:32:53;27.27;;;20.40;;
52894;SDS011;38759;53.396;6.722;2024-01-30T00:35:18;27.45;;;20.55;;
52894;SDS011;38759;53.396;6.722;2024-01-30T00:37:45;25.63;;;20.00;;
52894;SDS011;38759;53.396;6.722;2024-01-30T00:40:10;25.98;;;20.20;;
52894;SDS011;38759;53.396;6.722;2024-01-30T00:42:41;24.75;;;20.55;;
52894;SDS011;38759;53.396;6.722;2024-01-30T00:45:11;29.63;;;21.05;;
52894;SDS011;38759;53.396;6.722;2024-01-30T00:47:40;27.23;;;20.73;;
52894;SDS011;38759;53.396;6.722;2024-01-30T00:50:06;27.70;;;20.92;;
52894;SDS011;38759;53.396;6.722;2024-01-30T00:52:32;26.35;;;20.45;;
52894;SDS011;38759;53.396;6.722;2024-01-30T00:54:58;24.98;;;20.70;;
52894;SDS011;38759;53.396;6.722;2024-01-30T00:57:24;27.85;;;22.15;;
52894;SDS011;38759;53.396;6.722;2024-01-30T00:59:50;24.85;;;20.63;;
52894;SDS011;38759;53.396;6.722;2024-01-30T01:02:16;28.40;;;20.90;;
52894;SDS011;38759;53.396;6.722;2024-01-30T01:04:42;24.27;;;20.27;;
52894;SDS011;38759;53.396;6.722;2024-01-30T01:07:09;24.23;;;20.42;;
52894;SDS011;38759;53.396;6.722;2024-01-30T01:09:35;24.80;;;20.67;;
52894;SDS011;38759;53.396;6.722;2024-01-30T01:12:01;24.25;;;20.58;;
52894;SDS011;38759;53.396;6.722;2024-01-30T01:14:27;26.40;;;21.27;;
52894;SDS011;38759;53.396;6.722;2024-01-30T01:16:53;31.77;;;23.38;;
52894;SDS011;38759;53.396;6.722;2024-01-30T01:19:18;28.42;;;22.23;;
52894;SDS011;38759;53.396;6.722;2024-01-30T01:21:44;30.20;;;24.02;;
52894;SDS011;38759;53.396;6.722;2024-01-30T01:24:09;30.52;;;23.23;;
52894;SDS011;38759;53.396;6.722;2024-01-30T01:26:35;35.65;;;23.23;;
52894;SDS011;38759;53.396;6.722;2024-01-30T01:29:01;31.63;;;24.33;;
52894;SDS011;38759;53.396;6.722;2024-01-30T01:31:29;34.22;;;26.05;;
52894;SDS011;38759;53.396;6.722;2024-01-30T01:33:55;30.40;;;24.88;;
52894;SDS011;38759;53.396;6.722;2024-01-30T01:36:20;31.50;;;25.90;;
52894;SDS011;38759;53.396;6.722;2024-01-30T01:38:46;32.22;;;25.27;;
52894;SDS011;38759;53.396;6.722;2024-01-30T01:41:12;32.05;;;25.88;;
52894;SDS011;38759;53.396;6.722;2024-01-30T01:43:37;31.02;;;24.92;;
52894;SDS011;38759;53.396;6.722;2024-01-30T01:46:04;33.05;;;25.10;;
52894;SDS011;38759;53.396;6.722;2024-01-30T01:48:31;33.53;;;25.65;;
52894;SDS011;38759;53.396;6.722;2024-01-30T01:50:58;31.15;;;25.00;;
52894;SDS011;38759;53.396;6.722;2024-01-30T01:53:24;36.67;;;23.73;;
52894;SDS011;38759;53.396;6.722;2024-01-30T01:55:50;33.00;;;24.98;;
52894;SDS011;38759;53.396;6.722;2024-01-30T01:58:18;30.75;;;23.95;;
52894;SDS011;38759;53.396;6.722;2024-01-30T02:00:47;31.52;;;23.60;;
52894;SDS011;38759;53.396;6.722;2024-01-30T02:03:13;30.00;;;23.88;;
52894;SDS011;38759;53.396;6.722;2024-01-30T02:05:41;31.95;;;24.90;;
52894;SDS011;38759;53.396;6.722;2024-01-30T02:08:07;30.52;;;24.55;;
52894;SDS011;38759;53.396;6.722;2024-01-30T02:10:34;30.73;;;23.50;;
52894;SDS011;38759;53.396;6.722;2024-01-30T02:12:59;31.67;;;24.67;;
52894;SDS011;38759;53.396;6.722;2024-01-30T02:15:25;30.70;;;24.05;;
52894;SDS011;38759;53.396;6.722;2024-01-30T02:17:51;30.90;;;24.40;;
52894;SDS011;38759;53.396;6.722;2024-01-30T02:20:16;29.48;;;24.67;;
52894;SDS011;38759;53.396;6.722;2024-01-30T02:22:42;33.00;;;25.23;;
52894;SDS011;38759;53.396;6.722;2024-01-30T02:25:08;30.52;;;24.95;;
52894;SDS011;38759;53.396;6.722;2024-01-30T02:27:34;33.28;;;25.75;;
52894;SDS011;38759;53.396;6.722;2024-01-30T02:29:59;28.42;;;23.92;;
52894;SDS011;38759;53.396;6.722;2024-01-30T02:32:25;29.73;;;24.27;;
52894;SDS011;38759;53.396;6.722;2024-01-30T02:34:51;29.52;;;24.27;;
52894;SDS011;38759;53.396;6.722;2024-01-30T02:37:16;26.65;;;22.90;;
52894;SDS011;38759;53.396;6.722;2024-01-30T02:39:42;29.77;;;23.08;;
52894;SDS011;38759;53.396;6.722;2024-01-30T02:42:08;28.38;;;23.05;;
52894;SDS011;38759;53.396;6.722;2024-01-30T02:44:33;30.80;;;23.30;;
52894;SDS011;38759;53.396;6.722;2024-01-30T02:46:59;27.92;;;23.25;;
52894;SDS011;38759;53.396;6.722;2024-01-30T02:49:24;29.33;;;22.92;;
52894;SDS011;38759;53.396;6.722;2024-01-30T02:51:51;31.15;;;23.75;;
52894;SDS011;38759;53.396;6.722;2024-01-30T02:54:17;30.75;;;23.73;;
52894;SDS011;38759;53.396;6.722;2024-01-30T02:56:43;30.05;;;24.48;;
52894;SDS011;38759;53.396;6.722;2024-01-30T02:59:09;34.60;;;25.33;;
52894;SDS011;38759;53.396;6.722;2024-01-30T03:01:41;29.08;;;24.10;;
52894;SDS011;38759;53.396;6.722;2024-01-30T03:04:08;30.83;;;23.83;;
52894;SDS011;38759;53.396;6.722;2024-01-30T03:06:34;34.13;;;24.55;;
52894;SDS011;38759;53.396;6.722;2024-01-30T03:08:59;34.25;;;26.30;;
52894;SDS011;38759;53.396;6.722;2024-01-30T03:11:25;33.13;;;26.27;;
52894;SDS011;38759;53.396;6.722;2024-01-30T03:13:50;33.90;;;25.10;;
52894;SDS011;38759;53.396;6.722;2024-01-30T03:16:16;30.58;;;24.40;;
52894;SDS011;38759;53.396;6.722;2024-01-30T03:18:42;32.75;;;24.65;;
52894;SDS011;38759;53.396;6.722;2024-01-30T03:21:07;31.42;;;24.60;;
52894;SDS011;38759;53.396;6.722;2024-01-30T03:23:33;30.50;;;23.60;;
52894;SDS011;38759;53.396;6.722;2024-01-30T03:25:59;31.77;;;23.58;;
52894;SDS011;38759;53.396;6.722;2024-01-30T03:28:24;29.15;;;23.85;;
52894;SDS011;38759;53.396;6.722;2024-01-30T03:30:50;30.95;;;24.33;;
52894;SDS011;38759;53.396;6.722;2024-01-30T03:33:15;32.13;;;24.08;;
52894;SDS011;38759;53.396;6.722;2024-01-30T03:35:41;32.35;;;23.67;;
52894;SDS011;38759;53.396;6.722;2024-01-30T03:38:07;29.65;;;24.10;;
52894;SDS011;38759;53.396;6.722;2024-01-30T03:40:33;33.58;;;24.35;;
52894;SDS011;38759;53.396;6.722;2024-01-30T03:42:59;28.23;;;22.42;;
52894;SDS011;38759;53.396;6.722;2024-01-30T03:45:24;29.17;;;23.55;;
52894;SDS011;38759;53.396;6.722;2024-01-30T03:47:50;31.23;;;23.48;;
52894;SDS011;38759;53.396;6.722;2024-01-30T03:50:16;29.38;;;23.50;;
52894;SDS011;38759;53.396;6.722;2024-01-30T03:52:41;28.98;;;23.33;;
52894;SDS011;38759;53.396;6.722;2024-01-30T03:55:07;28.35;;;23.02;;
52894;SDS011;38759;53.396;6.722;2024-01-30T03:57:33;29.08;;;23.42;;
52894;SDS011;38759;53.396;6.722;2024-01-30T03:59:58;30.58;;;24.00;;
52894;SDS011;38759;53.396;6.722;2024-01-30T04:02:24;30.13;;;24.63;;
52894;SDS011;38759;53.396;6.722;2024-01-30T04:04:50;28.33;;;23.65;;
52894;SDS011;38759;53.396;6.722;2024-01-30T04:07:15;31.15;;;23.67;;
52894;SDS011;38759;53.396;6.722;2024-01-30T04:09:41;28.65;;;23.35;;
52894;SDS011;38759;53.396;6.722;2024-01-30T04:12:07;30.13;;;22.52;;
52894;SDS011;38759;53.396;6.722;2024-01-30T04:14:32;29.85;;;23.10;;
52894;SDS011;38759;53.396;6.722;2024-01-30T04:16:58;27.58;;;22.75;;
52894;SDS011;38759;53.396;6.722;2024-01-30T04:19:24;31.30;;;22.77;;
52894;SDS011;38759;53.396;6.722;2024-01-30T04:21:49;29.58;;;23.33;;
52894;SDS011;38759;53.396;6.722;2024-01-30T04:24:15;28.20;;;22.60;;
52894;SDS011;38759;53.396;6.722;2024-01-30T04:26:43;29.00;;;22.02;;
52894;SDS011;38759;53.396;6.722;2024-01-30T04:29:09;32.13;;;23.27;;
52894;SDS011;38759;53.396;6.722;2024-01-30T04:31:36;28.83;;;23.05;;
52894;SDS011;38759;53.396;6.722;2024-01-30T04:34:02;30.92;;;22.13;;
52894;SDS011;38759;53.396;6.722;2024-01-30T04:36:27;31.25;;;23.27;;
52894;SDS011;38759;53.396;6.722;2024-01-30T04:38:53;30.77;;;23.08;;
52894;SDS011;38759;53.396;6.722;2024-01-30T04:41:18;33.05;;;24.27;;
52894;SDS011;38759;53.396;6.722;2024-01-30T04:43:44;29.55;;;23.73;;
52894;SDS011;38759;53.396;6.722;2024-01-30T04:46:10;30.00;;;23.85;;
52894;SDS011;38759;53.396;6.722;2024-01-30T04:48:35;26.77;;;22.58;;
52894;SDS011;38759;53.396;6.722;2024-01-30T04:51:01;27.67;;;22.35;;
52894;SDS011;38759;53.396;6.722;2024-01-30T04:53:29;28.15;;;22.08;;
52894;SDS011;38759;53.396;6.722;2024-01-30T04:55:56;28.60;;;21.98;;
52894;SDS011;38759;53.396;6.722;2024-01-30T04:58:21;34.88;;;23.02;;
52894;SDS011;38759;53.396;6.722;2024-01-30T05:00:49;31.15;;;24.15;;
52894;SDS011;38759;53.396;6.722;2024-01-30T05:03:17;27.42;;;22.98;;
52894;SDS011;38759;53.396;6.722;2024-01-30T05:05:44;26.73;;;22.27;;
52894;SDS011;38759;53.396;6.722;2024-01-30T05:08:09;32.92;;;24.00;;
52894;SDS011;38759;53.396;6.722;2024-01-30T05:10:35;32.15;;;25.08;;
52894;SDS011;38759;53.396;6.722;2024-01-30T05:13:01;28.85;;;23.80;;
52894;SDS011;38759;53.396;6.722;2024-01-30T05:15:26;30.25;;;22.88;;
52894;SDS011;38759;53.396;6.722;2024-01-30T05:17:52;31.27;;;23.98;;
52894;SDS011;38759;53.396;6.722;2024-01-30T05:20:18;27.23;;;21.73;;
52894;SDS011;38759;53.396;6.722;2024-01-30T05:22:45;27.60;;;21.98;;
52894;SDS011;38759;53.396;6.722;2024-01-30T05:25:13;27.73;;;22.88;;
52894;SDS011;38759;53.396;6.722;2024-01-30T05:27:39;27.40;;;22.25;;
52894;SDS011;38759;53.396;6.722;2024-01-30T05:30:05;29.30;;;21.88;;
52894;SDS011;38759;53.396;6.722;2024-01-30T05:32:31;26.17;;;21.15;;
52894;SDS011;38759;53.396;6.722;2024-01-30T05:34:57;26.10;;;21.92;;
52894;SDS011;38759;53.396;6.722;2024-01-30T05:37:23;27.08;;;21.70;;
52894;SDS011;38759;53.396;6.722;2024-01-30T05:39:48;30.50;;;21.35;;
52894;SDS011;38759;53.396;6.722;2024-01-30T05:42:14;29.13;;;22.15;;
52894;SDS011;38759;53.396;6.722;2024-01-30T05:44:42;29.25;;;20.55;;
52894;SDS011;38759;53.396;6.722;2024-01-30T05:47:07;26.08;;;21.50;;
52894;SDS011;38759;53.396;6.722;2024-01-30T05:49:33;26.35;;;21.10;;
52894;SDS011;38759;53.396;6.722;2024-01-30T05:51:59;24.25;;;20.67;;
52894;SDS011;38759;53.396;6.722;2024-01-30T05:54:27;23.77;;;19.70;;
52894;SDS011;38759;53.396;6.722;2024-01-30T05:56:52;23.98;;;20.33;;
52894;SDS011;38759;53.396;6.722;2024-01-30T05:59:18;25.25;;;19.98;;
52894;SDS011;38759;53.396;6.722;2024-01-30T06:01:47;24.63;;;20.13;;
52894;SDS011;38759;53.396;6.722;2024-01-30T06:04:14;25.00;;;20.27;;
52894;SDS011;38759;53.396;6.722;2024-01-30T06:06:40;29.52;;;20.45;;
52894;SDS011;38759;53.396;6.722;2024-01-30T06:09:06;22.77;;;19.98;;
52894;SDS011;38759;53.396;6.722;2024-01-30T06:11:34;24.85;;;19.92;;
52894;SDS011;38759;53.396;6.722;2024-01-30T06:14:00;26.58;;;19.85;;
52894;SDS011;38759;53.396;6.722;2024-01-30T06:16:26;25.00;;;19.92;;
52894;SDS011;38759;53.396;6.722;2024-01-30T06:18:55;23.25;;;19.65;;
52894;SDS011;38759;53.396;6.722;2024-01-30T06:21:21;26.00;;;20.30;;
52894;SDS011;38759;53.396;6.722;2024-01-30T06:23:47;23.77;;;19.88;;
52894;SDS011;38759;53.396;6.722;2024-01-30T06:26:12;23.80;;;19.60;;
52894;SDS011;38759;53.396;6.722;2024-01-30T06:28:38;26.50;;;19.60;;
52894;SDS011;38759;53.396;6.722;2024-01-30T06:31:04;27.48;;;20.48;;
52894;SDS011;38759;53.396;6.722;2024-01-30T06:33:29;27.60;;;20.38;;
52894;SDS011;38759;53.396;6.722;2024-01-30T06:35:55;26.23;;;22.27;;
52894;SDS011;38759;53.396;6.722;2024-01-30T06:38:21;26.38;;;21.35;;
52894;SDS011;38759;53.396;6.722;2024-01-30T06:40:46;29.80;;;24.65;;
52894;SDS011;38759;53.396;6.722;2024-01-30T06:43:12;25.92;;;21.30;;
52894;SDS011;38759;53.396;6.722;2024-01-30T06:45:37;27.73;;;21.15;;
52894;SDS011;38759;53.396;6.722;2024-01-30T06:48:03;26.17;;;20.50;;
52894;SDS011;38759;53.396;6.722;2024-01-30T06:50:29;25.75;;;20.17;;
52894;SDS011;38759;53.396;6.722;2024-01-30T06:52:55;24.95;;;19.42;;
52894;SDS011;38759;53.396;6.722;2024-01-30T06:55:20;26.30;;;20.23;;
52894;SDS011;38759;53.396;6.722;2024-01-30T06:57:46;23.92;;;19.27;;
52894;SDS011;38759;53.396;6.722;2024-01-30T07:00:12;21.10;;;18.80;;
52894;SDS011;38759;53.396;6.722;2024-01-30T07:02:38;24.55;;;19.35;;
52894;SDS011;38759;53.396;6.722;2024-01-30T07:05:04;28.35;;;20.08;;
52894;SDS011;38759;53.396;6.722;2024-01-30T07:07:30;24.52;;;18.85;;
52894;SDS011;38759;53.396;6.722;2024-01-30T07:09:55;24.55;;;18.52;;
52894;SDS011;38759;53.396;6.722;2024-01-30T07:12:24;22.77;;;18.90;;
52894;SDS011;38759;53.396;6.722;2024-01-30T07:14:51;26.52;;;19.52;;
52894;SDS011;38759;53.396;6.722;2024-01-30T07:17:17;22.23;;;19.10;;
52894;SDS011;38759;53.396;6.722;2024-01-30T07:19:43;23.05;;;18.70;;
52894;SDS011;38759;53.396;6.722;2024-01-30T07:22:08;22.48;;;18.40;;
52894;SDS011;38759;53.396;6.722;2024-01-30T07:24:34;24.90;;;18.20;;
52894;SDS011;38759;53.396;6.722;2024-01-30T07:27:00;24.08;;;18.73;;
52894;SDS011;38759;53.396;6.722;2024-01-30T07:29:25;20.42;;;17.23;;
52894;SDS011;38759;53.396;6.722;2024-01-30T07:31:51;24.05;;;18.42;;
52894;SDS011;38759;53.396;6.722;2024-01-30T07:34:17;22.80;;;17.38;;
52894;SDS011;38759;53.396;6.722;2024-01-30T07:36:42;22.45;;;18.27;;
52894;SDS011;38759;53.396;6.722;2024-01-30T07:39:08;25.08;;;18.70;;
52894;SDS011;38759;53.396;6.722;2024-01-30T07:41:35;22.73;;;18.48;;
52894;SDS011;38759;53.396;6.722;2024-01-30T07:44:00;23.50;;;18.08;;
52894;SDS011;38759;53.396;6.722;2024-01-30T07:46:27;20.20;;;17.35;;
52894;SDS011;38759;53.396;6.722;2024-01-30T07:48:53;23.08;;;18.00;;
52894;SDS011;38759;53.396;6.722;2024-01-30T07:51:20;22.05;;;17.10;;
52894;SDS011;38759;53.396;6.722;2024-01-30T07:53:52;21.85;;;17.35;;
52894;SDS011;38759;53.396;6.722;2024-01-30T07:56:18;20.75;;;17.02;;
52894;SDS011;38759;53.396;6.722;2024-01-30T07:58:43;22.38;;;17.77;;
52894;SDS011;38759;53.396;6.722;2024-01-30T08:01:09;22.95;;;18.23;;
52894;SDS011;38759;53.396;6.722;2024-01-30T08:03:35;22.73;;;18.00;;
52894;SDS011;38759;53.396;6.722;2024-01-30T08:06:02;21.83;;;17.13;;
52894;SDS011;38759;53.396;6.722;2024-01-30T08:08:28;22.17;;;17.13;;
52894;SDS011;38759;53.396;6.722;2024-01-30T08:10:54;21.38;;;17.23;;
52894;SDS011;38759;53.396;6.722;2024-01-30T08:13:19;21.02;;;16.83;;
52894;SDS011;38759;53.396;6.722;2024-01-30T08:15:45;23.75;;;18.27;;
52894;SDS011;38759;53.396;6.722;2024-01-30T08:18:11;19.13;;;16.50;;
52894;SDS011;38759;53.396;6.722;2024-01-30T08:20:36;23.98;;;17.98;;
52894;SDS011;38759;53.396;6.722;2024-01-30T08:23:02;20.40;;;17.70;;
52894;SDS011;38759;53.396;6.722;2024-01-30T08:25:27;23.75;;;16.98;;
52894;SDS011;38759;53.396;6.722;2024-01-30T08:27:53;24.05;;;17.38;;
52894;SDS011;38759;53.396;6.722;2024-01-30T08:30:19;23.02;;;18.33;;
52894;SDS011;38759;53.396;6.722;2024-01-30T08:32:44;22.83;;;17.35;;
52894;SDS011;38759;53.396;6.722;2024-01-30T08:35:10;23.70;;;17.92;;
52894;SDS011;38759;53.396;6.722;2024-01-30T08:37:38;20.92;;;16.73;;
52894;SDS011;38759;53.396;6.722;2024-01-30T08:40:04;28.85;;;22.63;;
52894;SDS011;38759;53.396;6.722;2024-01-30T08:42:30;22.98;;;18.13;;
52894;SDS011;38759;53.396;6.722;2024-01-30T08:44:56;19.90;;;16.23;;
52894;SDS011;38759;53.396;6.722;2024-01-30T08:47:22;23.45;;;17.55;;
52894;SDS011;38759;53.396;6.722;2024-01-30T08:49:47;22.13;;;17.42;;
52894;SDS011;38759;53.396;6.722;2024-01-30T08:52:13;20.88;;;17.15;;
52894;SDS011;38759;53.396;6.722;2024-01-30T08:54:39;25.27;;;17.70;;
52894;SDS011;38759;53.396;6.722;2024-01-30T08:57:05;22.95;;;16.80;;
52894;SDS011;38759;53.396;6.722;2024-01-30T08:59:30;21.55;;;17.20;;
52894;SDS011;38759;53.396;6.722;2024-01-30T09:01:56;19.13;;;16.52;;
52894;SDS011;38759;53.396;6.722;2024-01-30T09:04:23;21.25;;;16.45;;
52894;SDS011;38759;53.396;6.722;2024-01-30T09:06:49;21.35;;;16.80;;
52894;SDS011;38759;53.396;6.722;2024-01-30T09:09:15;20.17;;;17.13;;
52894;SDS011;38759;53.396;6.722;2024-01-30T09:11:41;20.75;;;16.38;;
52894;SDS011;38759;53.396;6.722;2024-01-30T09:14:07;21.10;;;16.83;;
52894;SDS011;38759;53.396;6.722;2024-01-30T09:16:32;24.55;;;17.15;;
52894;SDS011;38759;53.396;6.722;2024-01-30T09:18:59;22.20;;;17.17;;
52894;SDS011;38759;53.396;6.722;2024-01-30T09:21:24;22.08;;;16.80;;
52894;SDS011;38759;53.396;6.722;2024-01-30T09:23:51;21.10;;;17.00;;
52894;SDS011;38759;53.396;6.722;2024-01-30T09:26:19;19.25;;;15.68;;
52894;SDS011;38759;53.396;6.722;2024-01-30T09:28:45;19.95;;;16.85;;
52894;SDS011;38759;53.396;6.722;2024-01-30T09:31:11;23.55;;;16.98;;
52894;SDS011;38759;53.396;6.722;2024-01-30T09:33:37;23.08;;;17.23;;
52894;SDS011;38759;53.396;6.722;2024-01-30T09:36:04;21.17;;;16.67;;
52894;SDS011;38759;53.396;6.722;2024-01-30T09:38:30;22.27;;;16.77;;
52894;SDS011;38759;53.396;6.722;2024-01-30T09:40:56;24.80;;;16.83;;
52894;SDS011;38759;53.396;6.722;2024-01-30T09:43:31;24.27;;;16.65;;
52894;SDS011;38759;53.396;6.722;2024-01-30T09:45:59;24.52;;;17.55;;
52894;SDS011;38759;53.396;6.722;2024-01-30T09:48:27;22.83;;;16.73;;
52894;SDS011;38759;53.396;6.722;2024-01-30T09:50:55;22.38;;;16.40;;
52894;SDS011;38759;53.396;6.722;2024-01-30T09:53:22;23.38;;;16.30;;
52894;SDS011;38759;53.396;6.722;2024-01-30T09:55:48;24.30;;;15.80;;
52894;SDS011;38759;53.396;6.722;2024-01-30T09:58:18;21.45;;;16.05;;
52894;SDS011;38759;53.396;6.722;2024-01-30T10:00:44;20.65;;;15.80;;
52894;SDS011;38759;53.396;6.722;2024-01-30T10:03:10;21.90;;;15.63;;
52894;SDS011;38759;53.396;6.722;2024-01-30T10:05:36;20.27;;;15.27;;
52894;SDS011;38759;53.396;6.722;2024-01-30T10:08:08;20.77;;;16.30;;
52894;SDS011;38759;53.396;6.722;2024-01-30T10:10:34;22.58;;;15.63;;
52894;SDS011;38759;53.396;6.722;2024-01-30T10:13:00;22.10;;;15.73;;
52894;SDS011;38759;53.396;6.722;2024-01-30T10:15:27;18.65;;;15.25;;
52894;SDS011;38759;53.396;6.722;2024-01-30T10:17:54;26.55;;;16.02;;
52894;SDS011;38759;53.396;6.722;2024-01-30T10:20:19;21.95;;;15.65;;
52894;SDS011;38759;53.396;6.722;2024-01-30T10:22:47;23.00;;;15.90;;
52894;SDS011;38759;53.396;6.722;2024-01-30T10:25:14;21.23;;;15.43;;
52894;SDS011;38759;53.396;6.722;2024-01-30T10:27:41;23.23;;;15.65;;
52894;SDS011;38759;53.396;6.722;2024-01-30T10:30:07;21.08;;;15.35;;
52894;SDS011;38759;53.396;6.722;2024-01-30T10:32:33;23.35;;;15.00;;
52894;SDS011;38759;53.396;6.722;2024-01-30T10:34:59;22.48;;;15.23;;
52894;SDS011;38759;53.396;6.722;2024-01-30T10:37:25;25.83;;;16.38;;
52894;SDS011;38759;53.396;6.722;2024-01-30T10:39:51;25.13;;;16.25;;
52894;SDS011;38759;53.396;6.722;2024-01-30T10:42:20;20.48;;;15.20;;
52894;SDS011;38759;53.396;6.722;2024-01-30T10:47:43;19.17;;;15.27;;
52894;SDS011;38759;53.396;6.722;2024-01-30T10:50:11;21.98;;;15.40;;
52894;SDS011;38759;53.396;6.722;2024-01-30T10:52:37;20.30;;;15.00;;
52894;SDS011;38759;53.396;6.722;2024-01-30T10:55:04;21.17;;;14.63;;
52894;SDS011;38759;53.396;6.722;2024-01-30T10:57:36;21.42;;;14.93;;
52894;SDS011;38759;53.396;6.722;2024-01-30T11:00:12;23.33;;;15.45;;
52894;SDS011;38759;53.396;6.722;2024-01-30T11:02:41;22.50;;;15.20;;
52894;SDS011;38759;53.396;6.722;2024-01-30T11:05:08;20.00;;;14.05;;
52894;SDS011;38759;53.396;6.722;2024-01-30T11:07:34;27.33;;;15.25;;
52894;SDS011;38759;53.396;6.722;2024-01-30T11:10:03;21.27;;;14.38;;
52894;SDS011;38759;53.396;6.722;2024-01-30T11:12:31;19.85;;;13.70;;
52894;SDS011;38759;53.396;6.722;2024-01-30T11:15:02;19.08;;;13.80;;
52894;SDS011;38759;53.396;6.722;2024-01-30T11:20:31;19.25;;;10.45;;
52894;SDS011;38759;53.396;6.722;2024-01-30T11:22:56;18.70;;;10.52;;
52894;SDS011;38759;53.396;6.722;2024-01-30T11:25:24;21.08;;;9.68;;
52894;SDS011;38759;53.396;6.722;2024-01-30T11:27:51;15.88;;;9.20;;
52894;SDS011;38759;53.396;6.722;2024-01-30T11:35:37;17.30;;;8.82;;
52894;SDS011;38759;53.396;6.722;2024-01-30T11:38:04;17.65;;;9.07;;
52894;SDS011;38759;53.396;6.722;2024-01-30T11:40:31;15.57;;;7.60;;
52894;SDS011;38759;53.396;6.722;2024-01-30T11:43:00;18.08;;;7.63;;
52894;SDS011;38759;53.396;6.722;2024-01-30T11:45:26;16.48;;;7.22;;
52894;SDS011;38759;53.396;6.722;2024-01-30T11:47:53;13.00;;;6.05;;
52894;SDS011;38759;53.396;6.722;2024-01-30T11:50:19;13.32;;;5.88;;
52894;SDS011;38759;53.396;6.722;2024-01-30T11:52:45;16.95;;;5.85;;
52894;SDS011;38759;53.396;6.722;2024-01-30T11:55:11;13.02;;;5.60;;
52894;SDS011;38759;53.396;6.722;2024-01-30T11:57:37;15.73;;;5.60;;
52894;SDS011;38759;53.396;6.722;2024-01-30T12:00:04;11.63;;;5.20;;
52894;SDS011;38759;53.396;6.722;2024-01-30T12:02:35;13.40;;;5.30;;
52894;SDS011;38759;53.396;6.722;2024-01-30T12:05:05;15.50;;;5.53;;
52894;SDS011;38759;53.396;6.722;2024-01-30T12:07:31;17.85;;;5.50;;
52894;SDS011;38759;53.396;6.722;2024-01-30T12:09:57;14.07;;;4.95;;
52894;SDS011;38759;53.396;6.722;2024-01-30T12:12:24;17.67;;;5.65;;
52894;SDS011;38759;53.396;6.722;2024-01-30T12:14:51;14.70;;;5.40;;
52894;SDS011;38759;53.396;6.722;2024-01-30T12:17:28;13.00;;;4.55;;
52894;SDS011;38759;53.396;6.722;2024-01-30T12:20:07;11.82;;;4.25;;
52894;SDS011;38759;53.396;6.722;2024-01-30T12:25:10;9.05;;;3.50;;
52894;SDS011;38759;53.396;6.722;2024-01-30T12:27:36;10.68;;;3.45;;
52894;SDS011;38759;53.396;6.722;2024-01-30T12:30:06;8.60;;;3.65;;
52894;SDS011;38759;53.396;6.722;2024-01-30T12:32:37;8.20;;;2.88;;
52894;SDS011;38759;53.396;6.722;2024-01-30T12:35:11;8.77;;;2.65;;
52894;SDS011;38759;53.396;6.722;2024-01-30T12:37:38;5.78;;;2.35;;
52894;SDS011;38759;53.396;6.722;2024-01-30T12:40:05;3.75;;;1.98;;
52894;SDS011;38759;53.396;6.722;2024-01-30T12:42:34;6.28;;;1.98;;
52894;SDS011;38759;53.396;6.722;2024-01-30T12:45:03;5.20;;;1.90;;
52894;SDS011;38759;53.396;6.722;2024-01-30T12:47:29;5.22;;;2.15;;
52894;SDS011;38759;53.396;6.722;2024-01-30T12:49:55;7.13;;;2.28;;
52894;SDS011;38759;53.396;6.722;2024-01-30T12:52:21;7.00;;;2.40;;
52894;SDS011;38759;53.396;6.722;2024-01-30T12:54:48;7.55;;;2.15;;
52894;SDS011;38759;53.396;6.722;2024-01-30T12:57:14;2.58;;;1.80;;
52894;SDS011;38759;53.396;6.722;2024-01-30T12:59:41;4.68;;;1.80;;
52894;SDS011;38759;53.396;6.722;2024-01-30T13:02:07;5.07;;;1.67;;
52894;SDS011;38759;53.396;6.722;2024-01-30T13:04:34;3.85;;;1.60;;
52894;SDS011;38759;53.396;6.722;2024-01-30T13:06:59;4.00;;;1.27;;
52894;SDS011;38759;53.396;6.722;2024-01-30T13:09:25;2.72;;;1.15;;
52894;SDS011;38759;53.396;6.722;2024-01-30T13:11:51;3.17;;;1.15;;
52894;SDS011;38759;53.396;6.722;2024-01-30T13:14:18;5.47;;;1.50;;
52894;SDS011;38759;53.396;6.722;2024-01-30T13:16:44;3.22;;;1.38;;
52894;SDS011;38759;53.396;6.722;2024-01-30T13:19:10;2.65;;;1.20;;
52894;SDS011;38759;53.396;6.722;2024-01-30T13:21:36;3.17;;;1.27;;
52894;SDS011;38759;53.396;6.722;2024-01-30T13:24:02;3.08;;;1.38;;
52894;SDS011;38759;53.396;6.722;2024-01-30T13:26:28;4.57;;;1.50;;
52894;SDS011;38759;53.396;6.722;2024-01-30T13:28:55;3.75;;;1.40;;
52894;SDS011;38759;53.396;6.722;2024-01-30T13:31:21;6.22;;;1.50;;
52894;SDS011;38759;53.396;6.722;2024-01-30T13:33:47;3.97;;;1.20;;
52894;SDS011;38759;53.396;6.722;2024-01-30T13:36:14;6.28;;;1.40;;
52894;SDS011;38759;53.396;6.722;2024-01-30T13:38:39;4.38;;;1.40;;
52894;SDS011;38759;53.396;6.722;2024-01-30T13:41:05;4.95;;;1.25;;
52894;SDS011;38759;53.396;6.722;2024-01-30T13:43:31;3.85;;;1.40;;
52894;SDS011;38759;53.396;6.722;2024-01-30T13:45:57;3.47;;;1.52;;
52894;SDS011;38759;53.396;6.722;2024-01-30T13:48:23;4.13;;;1.30;;
52894;SDS011;38759;53.396;6.722;2024-01-30T13:50:49;5.22;;;1.40;;
52894;SDS011;38759;53.396;6.722;2024-01-30T13:53:15;5.95;;;1.60;;
52894;SDS011;38759;53.396;6.722;2024-01-30T13:55:40;4.82;;;1.90;;
52894;SDS011;38759;53.396;6.722;2024-01-30T13:58:06;5.40;;;1.83;;
52894;SDS011;38759;53.396;6.722;2024-01-30T14:00:32;3.10;;;1.60;;
52894;SDS011;38759;53.396;6.722;2024-01-30T14:02:59;3.65;;;1.45;;
52894;SDS011;38759;53.396;6.722;2024-01-30T14:05:25;5.65;;;1.90;;
52894;SDS011;38759;53.396;6.722;2024-01-30T14:07:52;3.63;;;1.60;;
52894;SDS011;38759;53.396;6.722;2024-01-30T14:10:18;3.75;;;1.70;;
52894;SDS011;38759;53.396;6.722;2024-01-30T14:12:44;3.50;;;1.85;;
52894;SDS011;38759;53.396;6.722;2024-01-30T14:15:10;4.47;;;1.90;;
52894;SDS011;38759;53.396;6.722;2024-01-30T14:17:36;4.97;;;1.73;;
52894;SDS011;38759;53.396;6.722;2024-01-30T14:20:02;4.80;;;1.60;;
52894;SDS011;38759;53.396;6.722;2024-01-30T14:22:29;6.43;;;1.85;;
52894;SDS011;38759;53.396;6.722;2024-01-30T14:24:55;4.05;;;1.90;;
52894;SDS011;38759;53.396;6.722;2024-01-30T14:27:21;4.22;;;1.80;;
52894;SDS011;38759;53.396;6.722;2024-01-30T14:29:47;2.60;;;1.40;;
52894;SDS011;38759;53.396;6.722;2024-01-30T14:32:13;3.75;;;1.60;;
52894;SDS011;38759;53.396;6.722;2024-01-30T14:34:38;3.30;;;1.65;;